createdAt,value
2022-10-04T00:01:05.289Z,16
2022-10-04T00:16:05.950Z,11
2022-10-04T00:31:05.356Z,9
2022-10-04T00:46:05.548Z,12
2022-10-04T01:01:04.764Z,8
2022-10-04T01:16:04.908Z,8
2022-10-04T01:31:04.614Z,7
2022-10-04T01:46:04.762Z,6
2022-10-04T02:01:05.333Z,6
2022-10-04T02:16:05.711Z,7
2022-10-04T02:31:05.289Z,9
2022-10-04T02:46:05.448Z,9
2022-10-04T03:01:05.258Z,8
2022-10-04T03:16:05.763Z,9
2022-10-04T03:31:05.144Z,9
2022-10-04T03:46:05.239Z,9
2022-10-04T04:01:05.846Z,8
2022-10-04T04:16:05.075Z,8
2022-10-04T04:31:05.818Z,7
2022-10-04T04:46:25.894Z,12
2022-10-04T05:01:05.051Z,6
2022-10-04T05:16:05.468Z,12
2022-10-04T05:31:05.197Z,9
2022-10-04T05:46:05.343Z,13
2022-10-04T06:01:05.589Z,13
2022-10-04T06:16:04.582Z,8
2022-10-04T06:31:05.474Z,9
2022-10-04T06:46:04.865Z,8
2022-10-04T07:01:05.107Z,7
2022-10-04T07:16:05.597Z,6
2022-10-04T07:31:05.013Z,9
2022-10-04T07:46:04.942Z,6
2022-10-04T08:01:04.639Z,5
2022-10-04T08:16:05.147Z,3
2022-10-04T08:31:05.527Z,2
2022-10-04T08:46:05.169Z,3
2022-10-04T09:01:05.630Z,2
2022-10-04T09:16:05.108Z,3
2022-10-04T09:31:05.545Z,3
2022-10-04T09:46:05.547Z,1
2022-10-04T10:01:04.594Z,2
2022-10-04T10:16:04.837Z,1
2022-10-04T10:31:04.904Z,1
2022-10-04T10:46:05.289Z,3
2022-10-04T11:01:05.455Z,1
2022-10-04T11:16:04.429Z,1
2022-10-04T11:31:05.491Z,1
2022-10-04T11:46:07.327Z,1
2022-10-04T12:01:04.700Z,1
2022-10-04T12:16:05.065Z,0
2022-10-04T12:31:05.437Z,1
2022-10-04T12:46:05.222Z,0
2022-10-04T13:01:05.897Z,1
2022-10-04T13:31:05.374Z,3
2022-10-04T13:46:05.778Z,1
2022-10-04T14:01:05.352Z,1
2022-10-04T14:16:05.224Z,2
2022-10-04T14:31:05.422Z,1
2022-10-04T14:46:04.940Z,1
2022-10-04T15:01:05.251Z,2
2022-10-04T15:16:07.943Z,2
2022-10-04T15:31:05.655Z,2
2022-10-04T15:46:04.697Z,2
2022-10-04T16:01:04.796Z,4
2022-10-04T16:16:05.294Z,6
2022-10-04T16:31:05.179Z,8
2022-10-04T16:46:05.164Z,9
2022-10-04T17:01:05.089Z,15
2022-10-04T17:16:05.031Z,18
2022-10-04T17:31:04.730Z,23
2022-10-04T17:46:05.389Z,19
2022-10-04T18:01:04.590Z,60
2022-10-04T18:16:05.363Z,37
2022-10-04T18:31:04.875Z,30
2022-10-04T18:46:04.772Z,38
2022-10-04T19:01:04.920Z,27
2022-10-04T19:16:05.757Z,43
2022-10-04T19:31:05.036Z,34
2022-10-04T19:46:05.281Z,34
2022-10-04T20:01:04.774Z,32
2022-10-04T20:16:05.220Z,38
2022-10-04T20:31:04.660Z,28
2022-10-04T20:46:05.370Z,26
2022-10-04T21:01:05.352Z,22
2022-10-04T21:16:05.323Z,23
2022-10-04T21:31:05.144Z,25
2022-10-04T21:46:05.559Z,30
2022-10-04T22:01:04.994Z,28
2022-10-04T22:16:05.525Z,26
2022-10-04T22:31:05.096Z,19
2022-10-04T22:46:05.619Z,20
2022-10-04T23:01:04.683Z,20
2022-10-04T23:16:05.014Z,22
2022-10-04T23:31:05.257Z,21
2022-10-04T23:46:05.437Z,23
